Time;durP1;ratioP1;P1;durP2;ratioP2;P2;SDS_P1;SDS_P2;PMS_P1;PMS_P2;Temp;Humidity;BMP_temperature;BMP_pressure;BME280_temperature;BME280_humidity;BME280_pressure;Samples;Min_cycle;Max_cycle;Signal;HPM_P1;HPM_P2
2022/07/17 00:01:11;;;;;;;4.65;2.72;;;24.20;94.60;;;;;;6228070;28;89096;-65
2022/07/17 00:04:14;;;;;;;5.07;3.03;;;24.20;95.00;;;;;;6220735;28;90019;-64
2022/07/17 00:07:16;;;;;;;7.30;3.05;;;24.20;95.20;;;;;;6223349;28;90467;-63
2022/07/17 00:10:18;;;;;;;6.00;2.95;;;24.20;95.10;;;;;;6211008;28;89381;-64
2022/07/17 00:13:20;;;;;;;3.47;2.90;;;24.20;94.70;;;;;;6209413;28;89315;-65
2022/07/17 00:16:24;;;;;;;7.85;3.08;;;24.20;95.30;;;;;;6218067;28;89014;-64
2022/07/17 00:19:27;;;;;;;6.85;3.20;;;24.20;95.50;;;;;;6205656;28;89118;-65
2022/07/17 00:22:29;;;;;;;6.47;3.35;;;24.20;96.20;;;;;;6210366;28;88285;-64
2022/07/17 00:25:32;;;;;;;7.20;3.08;;;24.30;96.10;;;;;;6215557;28;87245;-64
2022/07/17 00:28:34;;;;;;;5.60;2.92;;;24.30;95.80;;;;;;6217460;28;89168;-64
2022/07/17 00:31:36;;;;;;;6.65;3.20;;;24.30;95.80;;;;;;6218619;28;89056;-65
2022/07/17 00:34:39;;;;;;;7.03;4.13;;;24.30;95.50;;;;;;6209825;28;90310;-64
2022/07/17 00:37:42;;;;;;;8.45;4.15;;;24.20;95.30;;;;;;6201556;28;89509;-64
2022/07/17 00:40:44;;;;;;;7.20;3.75;;;24.30;95.10;;;;;;6200302;28;89464;-64
2022/07/17 00:43:47;;;;;;;11.57;3.92;;;24.30;95.00;;;;;;6212069;28;89245;-64
2022/07/17 00:46:49;;;;;;;11.48;3.90;;;24.30;94.90;;;;;;6224748;28;89269;-64
2022/07/17 00:49:53;;;;;;;11.88;4.10;;;24.30;95.40;;;;;;6219969;28;89048;-63
2022/07/17 09:37:03;;;;;;;4.20;2.60;;;23.80;89.10;;;;;;6163519;28;88974;-62
2022/07/17 09:40:10;;;;;;;3.85;2.55;;;23.80;86.40;;;;;;6170874;28;89250;-62
2022/07/17 09:43:12;;;;;;;4.25;2.70;;;23.80;86.70;;;;;;6167989;28;90140;-62
2022/07/17 09:46:17;;;;;;;5.18;3.30;;;23.90;89.40;;;;;;6161064;28;89290;-62
2022/07/17 09:49:20;;;;;;;4.82;2.80;;;23.80;88.20;;;;;;6159800;28;88349;-61
2022/07/17 09:52:26;;;;;;;2.97;2.60;;;23.90;89.40;;;;;;6157169;28;89182;-62
2022/07/17 09:55:30;;;;;;;3.95;2.70;;;23.80;89.00;;;;;;6169160;28;87982;-62
2022/07/17 09:58:34;;;;;;;3.33;2.60;;;23.80;87.90;;;;;;6169397;28;89084;-62
2022/07/17 10:01:39;;;;;;;4.13;2.63;;;23.80;85.00;;;;;;6159750;28;89282;-62
2022/07/17 10:04:42;;;;;;;5.00;2.80;;;23.90;86.40;;;;;;6165245;28;88234;-62
2022/07/17 10:07:47;;;;;;;3.30;2.60;;;23.90;88.70;;;;;;6172206;28;88062;-63
2022/07/17 10:10:49;;;;;;;3.35;2.30;;;23.80;87.20;;;;;;6167744;28;89086;-63
2022/07/17 10:13:54;;;;;;;3.72;2.65;;;23.90;86.10;;;;;;6160600;28;91766;-63
2022/07/17 10:17:07;;;;;;;2.58;2.38;;;23.90;85.60;;;;;;6167533;28;88086;-62
2022/07/17 10:20:11;;;;;;;4.45;2.67;;;23.90;82.80;;;;;;6164607;28;87906;-63
2022/07/17 10:23:16;;;;;;;3.90;2.50;;;23.90;83.30;;;;;;6175974;28;89182;-62
2022/07/17 10:26:18;;;;;;;3.42;2.65;;;23.90;85.40;;;;;;6172960;28;89146;-62
2022/07/17 10:29:34;;;;;;;4.75;2.80;;;23.90;87.40;;;;;;6162808;28;89195;-63
2022/07/17 10:32:38;;;;;;;4.10;2.47;;;23.80;86.40;;;;;;6163725;28;89198;-63
2022/07/17 10:35:46;;;;;;;5.10;2.60;;;23.90;87.50;;;;;;6181726;28;88324;-63
2022/07/17 10:38:51;;;;;;;3.13;2.45;;;23.80;88.30;;;;;;6162231;28;88900;-63
2022/07/17 10:41:58;;;;;;;5.10;2.70;;;23.90;88.80;;;;;;6172427;28;88984;-63
2022/07/17 10:45:07;;;;;;;5.40;2.80;;;23.90;88.40;;;;;;6179394;28;89212;-63
2022/07/17 10:48:11;;;;;;;9.07;2.85;;;23.90;88.60;;;;;;6172604;28;89099;-63
2022/07/17 10:51:13;;;;;;;3.47;2.70;;;23.90;89.10;;;;;;6183637;28;89335;-63
2022/07/17 10:54:17;;;;;;;5.07;2.47;;;23.90;89.10;;;;;;6170120;28;89049;-63
2022/07/17 10:57:19;;;;;;;4.80;2.30;;;23.90;88.70;;;;;;6159834;28;89009;-63
2022/07/17 11:00:21;;;;;;;3.47;2.40;;;23.90;88.40;;;;;;6170245;28;89465;-63
2022/07/17 11:03:23;;;;;;;2.88;2.40;;;23.90;85.20;;;;;;6170311;28;89098;-63
2022/07/17 11:06:29;;;;;;;3.45;2.30;;;23.90;83.70;;;;;;6182274;28;88267;-63
2022/07/17 11:09:33;;;;;;;4.05;2.50;;;23.90;84.80;;;;;;6163616;28;87943;-63
2022/07/17 11:12:35;;;;;;;4.50;2.47;;;23.90;86.70;;;;;;6163922;28;89150;-63
2022/07/17 11:15:46;;;;;;;3.10;2.28;;;23.90;84.50;;;;;;6177896;28;88856;-63
2022/07/17 11:18:48;;;;;;;3.30;2.38;;;24.00;84.20;;;;;;6188570;28;89121;-63
2022/07/17 11:21:53;;;;;;;3.65;2.75;;;24.00;87.60;;;;;;6181524;28;89040;-63
2022/07/17 11:24:56;;;;;;;4.05;2.65;;;23.90;87.10;;;;;;6181672;28;89031;-63
2022/07/17 11:27:58;;;;;;;2.50;2.20;;;23.90;86.90;;;;;;6172443;28;89139;-63
2022/07/17 11:31:01;;;;;;;2.85;2.30;;;24.00;87.00;;;;;;6166678;28;88441;-63
2022/07/17 11:34:08;;;;;;;2.47;2.28;;;23.90;84.40;;;;;;6174167;28;89074;-63
2022/07/17 11:37:11;;;;;;;3.03;2.20;;;23.90;82.20;;;;;;6171022;28;88496;-63
2022/07/17 11:40:14;;;;;;;3.28;2.35;;;23.90;81.30;;;;;;6176941;28;88074;-63
2022/07/17 11:43:16;;;;;;;3.75;2.50;;;23.90;81.20;;;;;;6180979;28;87911;-63
2022/07/17 11:46:18;;;;;;;2.67;2.38;;;23.90;84.00;;;;;;6166217;28;90053;-63
2022/07/17 11:49:28;;;;;;;4.22;2.65;;;24.00;84.90;;;;;;6159201;28;89079;-63
2022/07/17 11:52:41;;;;;;;3.33;2.85;;;23.90;85.60;;;;;;6177995;28;89089;-63
2022/07/17 11:55:44;;;;;;;3.00;2.67;;;23.90;86.30;;;;;;6165437;28;89162;-63
2022/07/17 11:58:48;;;;;;;2.85;2.53;;;23.90;86.70;;;;;;6159203;28;89044;-63
2022/07/17 12:01:50;;;;;;;2.63;2.42;;;23.90;86.70;;;;;;6169521;28;89498;-63
2022/07/17 12:04:54;;;;;;;2.78;2.58;;;23.90;86.60;;;;;;6169067;28;89174;-63
2022/07/17 12:07:57;;;;;;;2.92;2.38;;;23.90;86.60;;;;;;6162618;28;88297;-63
2022/07/17 12:11:05;;;;;;;2.67;2.30;;;23.90;83.50;;;;;;6156063;28;89070;-63
2022/07/17 12:14:08;;;;;;;2.45;2.22;;;23.90;82.70;;;;;;6176262;28;89572;-63
2022/07/17 12:17:10;;;;;;;2.63;2.33;;;23.90;81.10;;;;;;6181685;28;89935;-63
2022/07/17 12:20:12;;;;;;;2.60;2.40;;;23.90;81.40;;;;;;6176484;28;89215;-63
2022/07/17 12:23:28;;;;;;;2.60;2.40;;;23.90;80.80;;;;;;6180391;28;89149;-63
2022/07/17 12:26:32;;;;;;;2.53;2.33;;;24.00;82.30;;;;;;6168149;28;88961;-63
2022/07/17 12:29:35;;;;;;;2.55;2.33;;;23.90;82.80;;;;;;6169192;28;87920;-63
2022/07/17 12:32:41;;;;;;;2.50;2.30;;;24.00;81.10;;;;;;6178876;28;89252;-63
2022/07/17 12:35:43;;;;;;;3.22;2.40;;;24.00;82.50;;;;;;6180414;28;89062;-63
2022/07/17 12:38:45;;;;;;;2.40;2.20;;;24.00;83.50;;;;;;6169101;28;88266;-63
2022/07/17 12:41:49;;;;;;;2.47;2.28;;;23.90;80.10;;;;;;6177561;28;89447;-63
2022/07/17 12:44:51;;;;;;;2.97;2.40;;;23.90;81.50;;;;;;6179403;28;89236;-63
2022/07/17 12:47:53;;;;;;;2.60;2.40;;;23.90;83.10;;;;;;6179977;28;90833;-63
2022/07/17 12:50:55;;;;;;;2.80;2.60;;;24.00;84.40;;;;;;6172356;28;89088;-64
2022/07/17 12:53:58;;;;;;;3.97;3.67;;;23.90;84.60;;;;;;6182081;28;89377;-63
2022/07/17 12:57:01;;;;;;;4.60;4.20;;;23.90;84.80;;;;;;6170093;28;91638;-64
2022/07/17 13:00:04;;;;;;;8.52;7.72;;;23.90;84.70;;;;;;6180047;28;89097;-64
2022/07/17 13:03:06;;;;;;;20.40;10.20;;;24.00;84.20;;;;;;6179763;28;89049;-66
2022/07/17 13:06:09;;;;;;;10.57;8.60;;;23.90;86.40;;;;;;6163958;28;89122;-65
2022/07/17 13:09:12;;;;;;;8.93;7.55;;;23.90;85.90;;;;;;6169512;28;88361;-65
2022/07/17 13:12:15;;;;;;;8.27;7.50;;;23.90;85.80;;;;;;6173122;28;88347;-65
2022/07/17 13:15:18;;;;;;;9.25;7.70;;;23.90;85.50;;;;;;6175293;28;89011;-65
2022/07/17 13:18:20;;;;;;;8.55;7.50;;;23.90;85.20;;;;;;6176155;28;90007;-65
2022/07/17 13:21:22;;;;;;;13.05;7.90;;;23.90;84.90;;;;;;6181134;28;89085;-65
2022/07/17 13:24:24;;;;;;;19.80;10.38;;;23.90;85.70;;;;;;6181831;28;89066;-65
2022/07/17 13:27:27;;;;;;;22.27;10.68;;;24.00;88.80;;;;;;6174583;28;89086;-65
2022/07/17 13:30:29;;;;;;;19.95;10.43;;;24.00;89.10;;;;;;6179541;28;89428;-65
2022/07/17 13:33:31;;;;;;;24.15;10.90;;;24.00;89.70;;;;;;6183025;28;89158;-65
2022/07/17 13:36:33;;;;;;;19.38;10.13;;;24.00;89.70;;;;;;6178947;28;88495;-64
2022/07/17 13:39:35;;;;;;;18.27;9.80;;;24.00;88.90;;;;;;6182110;28;87107;-65
2022/07/17 13:42:39;;;;;;;13.75;8.63;;;24.00;88.60;;;;;;6184074;28;89569;-65
2022/07/17 13:45:41;;;;;;;12.82;8.32;;;24.00;88.30;;;;;;6183361;28;89108;-65
2022/07/17 13:48:43;;;;;;;15.23;8.25;;;24.00;87.90;;;;;;6181490;28;90016;-65
2022/07/17 13:51:45;;;;;;;23.10;9.25;;;24.00;88.10;;;;;;6175082;28;88052;-65
2022/07/17 13:54:47;;;;;;;17.92;8.93;;;23.90;88.00;;;;;;6167230;28;89122;-65
2022/07/17 13:57:50;;;;;;;24.13;10.32;;;24.00;88.40;;;;;;6177178;28;88931;-65
2022/07/17 14:00:52;;;;;;;27.58;11.65;;;24.00;88.80;;;;;;6181791;28;89057;-64
2022/07/17 14:03:54;;;;;;;25.65;11.60;;;24.00;89.30;;;;;;6169516;28;89162;-65
2022/07/17 14:06:56;;;;;;;22.27;10.20;;;24.00;89.40;;;;;;6183338;28;89052;-65
2022/07/17 14:09:58;;;;;;;20.20;9.75;;;24.10;89.80;;;;;;6171543;28;88908;-65
2022/07/17 14:13:02;;;;;;;18.20;9.02;;;24.00;89.70;;;;;;6169741;28;91329;-65
2022/07/17 14:16:04;;;;;;;15.85;7.90;;;24.10;89.60;;;;;;6177279;28;89049;-65
2022/07/17 14:19:07;;;;;;;14.32;8.27;;;24.00;89.60;;;;;;6180543;28;90094;-65
2022/07/17 14:22:09;;;;;;;11.90;7.13;;;24.10;90.00;;;;;;6182433;28;88868;-65
2022/07/17 14:25:11;;;;;;;13.38;7.53;;;24.10;89.40;;;;;;6170596;28;89387;-66
2022/07/17 14:28:15;;;;;;;12.35;7.30;;;24.10;89.50;;;;;;6180894;28;89239;-65
2022/07/17 14:31:17;;;;;;;10.82;6.35;;;24.10;89.20;;;;;;6163453;28;89638;-65
2022/07/17 14:34:19;;;;;;;10.52;6.13;;;24.10;88.80;;;;;;6182216;28;89160;-65
2022/07/17 14:37:21;;;;;;;9.80;6.10;;;24.10;88.00;;;;;;6171977;28;89269;-65
2022/07/17 14:40:23;;;;;;;11.40;5.90;;;24.10;88.10;;;;;;6176497;28;88678;-65
2022/07/17 14:43:26;;;;;;;10.23;5.82;;;24.10;86.60;;;;;;6173782;28;87957;-65
2022/07/17 14:46:28;;;;;;;9.68;6.10;;;24.10;87.40;;;;;;6176299;28;89067;-65
2022/07/17 14:49:30;;;;;;;8.73;5.82;;;24.10;87.60;;;;;;6168457;28;88958;-65
2022/07/17 14:52:33;;;;;;;9.52;6.13;;;24.10;88.10;;;;;;6159755;28;89629;-65
2022/07/17 14:55:35;;;;;;;8.98;5.85;;;24.10;88.30;;;;;;6163168;28;88970;-65
2022/07/17 14:58:38;;;;;;;8.60;5.60;;;24.10;88.40;;;;;;6181961;28;89310;-65
2022/07/17 15:01:40;;;;;;;9.40;5.55;;;24.10;88.50;;;;;;6161088;28;89151;-65
2022/07/17 15:04:42;;;;;;;8.68;5.20;;;24.10;88.20;;;;;;6178084;28;88068;-65
2022/07/17 15:07:44;;;;;;;7.78;5.07;;;24.10;87.90;;;;;;6182546;28;89335;-65
2022/07/17 15:10:46;;;;;;;7.00;4.80;;;24.10;87.20;;;;;;6168305;28;88363;-65
2022/07/17 15:13:49;;;;;;;6.28;4.50;;;24.10;87.20;;;;;;6176229;28;89147;-65
2022/07/17 15:16:51;;;;;;;6.53;4.70;;;24.10;87.20;;;;;;6176522;28;89140;-65
2022/07/17 15:19:53;;;;;;;8.40;4.90;;;24.10;87.40;;;;;;6175734;28;89872;-66
2022/07/17 15:22:55;;;;;;;7.25;4.60;;;24.10;86.70;;;;;;6174732;28;87987;-65
2022/07/17 15:25:57;;;;;;;6.47;4.45;;;24.10;86.70;;;;;;6170095;28;89103;-65
2022/07/17 15:29:01;;;;;;;6.47;4.43;;;24.10;86.70;;;;;;6179306;28;88371;-65
2022/07/17 15:32:03;;;;;;;7.15;4.50;;;24.10;86.90;;;;;;6174524;28;89125;-65
2022/07/17 15:35:06;;;;;;;6.38;4.47;;;24.10;87.10;;;;;;6165186;28;89077;-65
2022/07/17 15:38:08;;;;;;;6.07;4.28;;;24.10;87.10;;;;;;6170044;28;89095;-65
2022/07/17 15:41:10;;;;;;;6.75;4.22;;;24.10;87.40;;;;;;6182238;28;88367;-65
2022/07/17 15:44:15;;;;;;;6.88;4.90;;;24.10;87.10;;;;;;6180039;28;89064;-65
2022/07/17 15:47:18;;;;;;;5.32;4.20;;;24.10;87.20;;;;;;6183005;28;88983;-65
2022/07/17 15:50:20;;;;;;;7.85;4.28;;;24.10;87.20;;;;;;6169401;28;89997;-65
2022/07/17 15:53:22;;;;;;;5.05;3.83;;;24.10;86.60;;;;;;6182505;28;89088;-65
2022/07/17 15:56:24;;;;;;;6.82;4.50;;;24.10;86.70;;;;;;6166885;28;89396;-65
2022/07/17 15:59:28;;;;;;;5.88;4.05;;;24.10;86.60;;;;;;6181743;28;89431;-65
2022/07/17 16:02:30;;;;;;;6.55;4.28;;;24.10;86.50;;;;;;6182173;28;89395;-65
2022/07/17 16:05:31;;;;;;;7.15;3.83;;;24.10;86.50;;;;;;6168961;28;87045;-65
2022/07/17 16:08:33;;;;;;;4.57;3.50;;;24.10;86.40;;;;;;6171457;28;89375;-65
2022/07/17 16:11:35;;;;;;;3.72;3.22;;;24.10;86.20;;;;;;6160161;28;87278;-65
2022/07/17 16:14:39;;;;;;;5.93;3.72;;;24.10;86.10;;;;;;6177130;28;89133;-65
2022/07/17 16:17:41;;;;;;;3.92;3.30;;;24.10;85.70;;;;;;6181899;28;89072;-65
2022/07/17 16:20:43;;;;;;;4.60;3.50;;;24.10;85.50;;;;;;6175044;28;90024;-66
2022/07/17 16:23:45;;;;;;;4.20;3.42;;;24.10;85.90;;;;;;6164124;28;89458;-66
2022/07/17 16:26:47;;;;;;;4.43;3.70;;;24.10;86.00;;;;;;6161059;28;89246;-66
2022/07/17 16:29:51;;;;;;;4.35;3.28;;;24.10;86.10;;;;;;6169048;28;89143;-65
2022/07/17 16:32:53;;;;;;;4.35;3.20;;;24.10;85.80;;;;;;6170492;28;89025;-66
2022/07/17 16:35:55;;;;;;;4.22;3.28;;;24.10;85.70;;;;;;6173447;28;89121;-66
2022/07/17 16:38:57;;;;;;;4.57;3.17;;;24.10;85.50;;;;;;6176918;28;89092;-66
2022/07/17 16:41:59;;;;;;;3.80;3.20;;;24.10;85.50;;;;;;6174308;28;88496;-66
2022/07/17 16:45:03;;;;;;;3.60;3.05;;;24.10;85.40;;;;;;6170621;28;89318;-66
2022/07/17 16:48:06;;;;;;;3.72;2.80;;;24.10;85.50;;;;;;6163785;28;88480;-66
2022/07/17 16:51:08;;;;;;;4.30;3.10;;;24.10;86.80;;;;;;6170719;28;89985;-66
2022/07/17 16:54:10;;;;;;;4.20;3.03;;;24.10;88.30;;;;;;6167319;28;89153;-65
2022/07/17 16:57:12;;;;;;;4.90;2.83;;;24.20;88.40;;;;;;6168181;28;88233;-66
2022/07/17 17:00:16;;;;;;;3.10;2.72;;;24.30;87.60;;;;;;6167422;28;89009;-66
2022/07/17 17:03:18;;;;;;;3.30;2.83;;;24.30;87.90;;;;;;6177859;28;89019;-66
2022/07/17 17:06:20;;;;;;;4.25;3.00;;;24.30;88.20;;;;;;6178806;28;89071;-66
2022/07/17 17:09:22;;;;;;;3.40;2.97;;;24.30;88.10;;;;;;6161305;28;89615;-66
2022/07/17 17:12:24;;;;;;;4.10;3.08;;;24.30;88.10;;;;;;6168890;28;88441;-66
2022/07/17 17:15:27;;;;;;;4.07;2.92;;;24.30;88.10;;;;;;6168480;28;89047;-65
2022/07/17 17:18:29;;;;;;;3.42;2.95;;;24.30;88.10;;;;;;6168259;28;89462;-66
2022/07/17 17:21:31;;;;;;;4.55;2.70;;;24.30;87.90;;;;;;6155625;28;90869;-66
2022/07/17 17:24:33;;;;;;;3.10;2.70;;;24.30;87.70;;;;;;6169289;28;88152;-65
2022/07/17 17:27:36;;;;;;;2.60;2.40;;;24.30;87.60;;;;;;6176477;28;89031;-65
2022/07/17 17:30:39;;;;;;;2.85;2.58;;;24.30;87.60;;;;;;6167449;28;89673;-66
2022/07/17 17:33:41;;;;;;;2.97;2.67;;;24.30;87.20;;;;;;6178085;28;89060;-66
2022/07/17 17:36:43;;;;;;;3.22;2.50;;;24.30;87.10;;;;;;6161917;28;89072;-65
2022/07/17 17:39:45;;;;;;;2.72;2.53;;;24.20;86.90;;;;;;6131226;28;1239932;-66
2022/07/17 17:42:48;;;;;;;2.85;2.50;;;24.30;87.00;;;;;;6167760;28;88366;-66
2022/07/17 17:45:53;;;;;;;2.83;2.40;;;24.30;86.70;;;;;;6169326;28;88913;-65
2022/07/17 17:48:55;;;;;;;3.10;2.60;;;24.20;86.30;;;;;;6168244;28;89478;-66
2022/07/17 17:51:57;;;;;;;3.70;2.30;;;24.30;86.30;;;;;;6174705;28;89978;-65
2022/07/17 17:54:59;;;;;;;2.50;2.30;;;24.20;86.60;;;;;;6168255;28;88167;-65
2022/07/17 17:58:01;;;;;;;2.78;2.50;;;24.20;87.10;;;;;;6179876;28;89095;-66
2022/07/17 18:01:05;;;;;;;3.58;2.38;;;24.30;87.40;;;;;;6179386;28;89020;-65
2022/07/17 18:04:07;;;;;;;3.03;2.53;;;24.20;87.60;;;;;;6174211;28;89032;-66
2022/07/17 18:07:09;;;;;;;3.88;2.40;;;24.30;87.60;;;;;;6182405;28;89068;-66
2022/07/17 18:10:11;;;;;;;2.92;2.33;;;24.30;87.60;;;;;;6173876;28;89061;-66
2022/07/17 18:13:13;;;;;;;2.70;2.40;;;24.30;87.60;;;;;;6186326;28;88567;-66
2022/07/17 18:16:17;;;;;;;2.67;2.28;;;24.30;87.70;;;;;;6159462;28;89152;-65
2022/07/17 18:19:19;;;;;;;3.60;2.55;;;24.30;87.70;;;;;;6181822;28;88031;-65
2022/07/17 18:22:21;;;;;;;2.88;2.30;;;24.30;87.80;;;;;;6178203;28;90004;-65
2022/07/17 18:25:23;;;;;;;2.67;2.35;;;24.30;87.80;;;;;;6177457;28;88993;-65
2022/07/17 18:28:26;;;;;;;3.03;2.50;;;24.30;87.80;;;;;;6171825;28;89144;-65
2022/07/17 18:31:29;;;;;;;2.92;2.38;;;24.30;87.80;;;;;;6171019;28;89079;-66
2022/07/17 18:34:31;;;;;;;2.15;1.95;;;24.30;87.90;;;;;;6173850;28;89048;-65
2022/07/17 18:37:33;;;;;;;2.58;2.30;;;24.30;87.90;;;;;;6171597;28;89342;-65
2022/07/17 18:40:35;;;;;;;3.20;2.20;;;24.30;88.40;;;;;;6164809;28;88997;-65
2022/07/17 18:43:37;;;;;;;2.70;2.50;;;24.20;88.30;;;;;;6168339;28;88356;-65
2022/07/17 18:46:41;;;;;;;2.88;2.45;;;24.30;88.40;;;;;;6184945;28;89147;-65
2022/07/17 18:49:43;;;;;;;2.53;2.30;;;24.30;88.60;;;;;;6188679;28;89143;-66
2022/07/17 18:52:45;;;;;;;2.42;2.22;;;24.20;88.60;;;;;;6183310;28;90407;-66
2022/07/17 18:55:47;;;;;;;3.55;2.70;;;24.20;88.60;;;;;;6170311;28;89822;-66
2022/07/17 18:58:50;;;;;;;3.03;2.45;;;24.20;88.60;;;;;;6183815;28;89163;-66
2022/07/17 19:01:53;;;;;;;2.55;2.35;;;24.20;88.60;;;;;;6182577;28;90876;-65
2022/07/17 19:04:55;;;;;;;2.70;2.20;;;24.20;88.60;;;;;;6173683;28;89020;-66
2022/07/17 19:07:57;;;;;;;2.40;2.20;;;24.20;88.80;;;;;;6172258;28;89097;-65
2022/07/17 19:10:59;;;;;;;2.58;2.38;;;24.20;88.60;;;;;;6177739;28;89005;-66
2022/07/17 19:14:01;;;;;;;2.60;2.38;;;24.20;88.80;;;;;;6182043;28;88439;-65
2022/07/17 19:17:04;;;;;;;2.60;2.40;;;24.20;89.10;;;;;;6182689;28;89777;-65
2022/07/17 19:20:09;;;;;;;2.95;2.60;;;24.20;89.30;;;;;;6180822;28;89180;-66
2022/07/17 19:23:11;;;;;;;2.40;2.20;;;24.20;89.10;;;;;;6183608;28;90014;-65
2022/07/17 19:26:15;;;;;;;3.78;2.50;;;24.20;89.20;;;;;;6174159;28;89110;-66
2022/07/17 19:29:17;;;;;;;2.80;2.47;;;24.20;89.30;;;;;;6173718;28;89363;-65
2022/07/17 19:32:21;;;;;;;2.90;2.40;;;24.20;89.40;;;;;;6181697;28;89178;-65
2022/07/17 19:35:23;;;;;;;2.33;2.13;;;24.20;89.60;;;;;;6181347;28;89082;-65
2022/07/17 19:38:25;;;;;;;2.60;2.40;;;24.20;89.60;;;;;;6164018;28;89030;-65
2022/07/17 19:41:27;;;;;;;2.80;2.42;;;24.20;89.60;;;;;;6175340;28;89076;-65
2022/07/17 19:44:29;;;;;;;2.63;2.40;;;24.20;89.60;;;;;;6184559;28;88483;-65
2022/07/17 19:47:33;;;;;;;2.60;2.40;;;24.20;89.50;;;;;;6181869;28;89113;-65
2022/07/17 19:50:35;;;;;;;2.65;2.45;;;24.20;89.50;;;;;;6178053;28;89450;-66
2022/07/17 19:53:37;;;;;;;2.42;2.22;;;24.20;89.50;;;;;;6181347;28;90039;-65
2022/07/17 19:56:39;;;;;;;2.72;2.40;;;24.20;90.10;;;;;;6162362;28;89139;-65
2022/07/17 19:59:41;;;;;;;2.70;2.30;;;24.20;89.60;;;;;;6176738;28;89169;-65
2022/07/17 20:02:44;;;;;;;2.60;2.40;;;24.20;89.60;;;;;;6180952;28;89124;-65
2022/07/17 20:05:46;;;;;;;2.90;2.60;;;24.20;89.60;;;;;;6181029;28;89531;-65
2022/07/17 20:08:48;;;;;;;2.90;2.60;;;24.20;89.60;;;;;;6179991;28;87978;-65
2022/07/17 20:11:50;;;;;;;2.45;2.25;;;24.20;89.70;;;;;;6168947;28;89127;-65
2022/07/17 20:14:52;;;;;;;2.50;2.10;;;24.10;89.80;;;;;;6182432;28;88327;-65
2022/07/17 20:17:56;;;;;;;2.45;2.25;;;24.20;90.00;;;;;;6178046;28;89172;-65
2022/07/17 20:20:58;;;;;;;2.20;2.00;;;24.20;90.00;;;;;;6178830;28;89051;-65
2022/07/17 20:24:00;;;;;;;2.25;2.05;;;24.20;90.10;;;;;;6181192;28;89049;-65
2022/07/17 20:27:02;;;;;;;2.40;2.20;;;24.20;90.10;;;;;;6166784;28;89231;-65
2022/07/17 20:30:06;;;;;;;2.50;2.30;;;24.20;90.00;;;;;;6175141;28;89138;-65
2022/07/17 20:33:10;;;;;;;2.30;2.10;;;24.20;90.00;;;;;;6189383;28;89102;-65
2022/07/17 20:36:12;;;;;;;2.88;2.40;;;24.20;90.00;;;;;;6173394;28;89168;-65
2022/07/17 20:39:14;;;;;;;2.67;2.42;;;24.20;90.00;;;;;;6174613;28;89099;-65
2022/07/17 20:42:16;;;;;;;2.60;2.40;;;24.20;90.00;;;;;;6174512;28;89030;-65
2022/07/17 20:45:18;;;;;;;2.53;2.25;;;24.20;90.00;;;;;;6171207;28;88340;-65
2022/07/17 20:48:21;;;;;;;2.33;2.10;;;24.20;90.10;;;;;;6173512;28;89059;-65
2022/07/17 20:51:23;;;;;;;2.67;2.47;;;24.20;90.00;;;;;;6161574;28;89447;-65
2022/07/17 20:54:25;;;;;;;2.42;2.22;;;24.20;90.00;;;;;;6174142;28;90108;-65
2022/07/17 20:57:27;;;;;;;2.30;2.10;;;24.20;90.10;;;;;;6167850;28;87075;-65
2022/07/17 21:00:29;;;;;;;2.00;1.90;;;24.20;90.10;;;;;;6158847;28;89115;-65
2022/07/17 21:03:33;;;;;;;2.53;2.33;;;24.20;90.20;;;;;;6181036;28;87989;-65
2022/07/17 21:06:35;;;;;;;2.75;2.20;;;24.10;90.20;;;;;;6159736;28;89539;-65
2022/07/17 21:09:37;;;;;;;2.28;2.08;;;24.20;90.40;;;;;;6163337;28;89143;-65
2022/07/17 21:12:39;;;;;;;2.42;2.22;;;24.20;90.40;;;;;;6175968;28;89081;-65
2022/07/17 21:15:41;;;;;;;2.25;2.05;;;24.20;90.30;;;;;;6173072;28;88646;-65
2022/07/17 21:18:44;;;;;;;2.55;2.35;;;24.20;90.30;;;;;;6178968;28;89039;-65
2022/07/17 21:21:46;;;;;;;2.10;2.00;;;24.20;90.30;;;;;;6172997;28;88044;-65
2022/07/17 21:24:48;;;;;;;2.58;2.30;;;24.20;90.30;;;;;;6169652;28;90192;-65
2022/07/17 21:27:50;;;;;;;2.65;2.25;;;24.20;90.30;;;;;;6179177;28;88945;-65
2022/07/17 21:30:52;;;;;;;2.42;2.22;;;24.20;90.30;;;;;;6183267;28;89394;-65
2022/07/17 21:33:56;;;;;;;2.50;2.30;;;24.20;90.30;;;;;;6185102;28;89024;-65
2022/07/17 21:36:58;;;;;;;2.60;2.40;;;24.20;90.30;;;;;;6180900;28;89015;-65
2022/07/17 21:40:00;;;;;;;2.70;2.40;;;24.20;90.30;;;;;;6182278;28;88966;-65
2022/07/17 21:43:02;;;;;;;2.40;2.20;;;24.20;90.30;;;;;;6184844;28;87921;-65
2022/07/17 21:46:05;;;;;;;2.40;2.20;;;24.20;90.30;;;;;;6178821;28;88280;-65
2022/07/17 21:49:08;;;;;;;3.63;2.17;;;24.20;90.30;;;;;;6183968;28;89042;-65
2022/07/17 21:52:10;;;;;;;2.40;2.20;;;24.10;90.40;;;;;;6178562;28;89426;-65
2022/07/17 21:55:13;;;;;;;2.30;2.10;;;24.20;90.50;;;;;;6174325;28;90092;-65
2022/07/17 21:58:16;;;;;;;2.72;2.45;;;24.20;90.50;;;;;;6172928;28;89334;-65
2022/07/17 22:01:19;;;;;;;2.83;2.63;;;24.20;90.40;;;;;;6173524;28;89186;-65
2022/07/17 22:04:22;;;;;;;2.42;2.22;;;24.20;90.40;;;;;;6164906;28;89149;-65
2022/07/17 22:07:25;;;;;;;2.58;2.38;;;24.20;90.40;;;;;;6167666;28;90634;-65
2022/07/17 22:10:30;;;;;;;3.15;2.78;;;24.20;90.40;;;;;;6171039;28;88469;-65
2022/07/17 22:13:32;;;;;;;2.63;2.42;;;24.20;90.40;;;;;;6170577;28;89150;-65
2022/07/17 22:16:34;;;;;;;2.92;2.63;;;24.20;90.40;;;;;;6172112;28;89532;-65
2022/07/17 22:19:38;;;;;;;3.17;2.80;;;24.20;90.40;;;;;;6170475;28;88325;-65
2022/07/17 22:22:41;;;;;;;2.92;2.60;;;24.20;90.40;;;;;;6171857;28;89068;-65
2022/07/17 22:25:44;;;;;;;2.80;2.50;;;24.20;90.30;;;;;;6171651;28;88924;-65
2022/07/17 22:28:46;;;;;;;3.10;2.80;;;24.20;90.40;;;;;;6171537;28;88984;-65
2022/07/17 22:31:49;;;;;;;3.88;2.72;;;24.10;90.30;;;;;;6168716;28;89066;-65
2022/07/17 22:34:52;;;;;;;3.00;2.70;;;24.10;90.40;;;;;;6170153;28;87879;-65
2022/07/17 22:37:54;;;;;;;3.47;2.90;;;24.10;90.40;;;;;;6170496;28;89624;-65
2022/07/17 22:40:56;;;;;;;2.78;2.58;;;24.20;90.50;;;;;;6169818;28;89312;-64
2022/07/17 22:43:58;;;;;;;3.05;2.60;;;24.20;90.50;;;;;;6170978;28;89269;-65
2022/07/17 22:47:00;;;;;;;3.00;2.70;;;24.10;90.50;;;;;;6170850;28;88581;-65
2022/07/17 22:50:05;;;;;;;3.55;2.97;;;24.10;90.40;;;;;;6170783;28;88379;-65
2022/07/17 22:53:07;;;;;;;2.70;2.50;;;24.20;90.40;;;;;;6170798;28;89030;-65
2022/07/17 22:56:10;;;;;;;3.88;2.92;;;24.20;90.50;;;;;;6169750;28;89974;-65
2022/07/17 22:59:12;;;;;;;4.32;3.25;;;24.20;90.50;;;;;;6169210;28;89129;-65
2022/07/17 23:02:15;;;;;;;2.80;2.45;;;24.20;90.40;;;;;;6171519;28;89151;-65
2022/07/17 23:05:19;;;;;;;3.10;2.80;;;24.10;90.50;;;;;;6170778;28;90113;-65
2022/07/17 23:08:21;;;;;;;3.05;2.80;;;24.20;90.50;;;;;;6169848;28;87908;-65
2022/07/17 23:11:23;;;;;;;3.30;2.70;;;24.10;90.50;;;;;;6170439;28;88970;-65
2022/07/17 23:14:25;;;;;;;2.92;2.67;;;24.20;90.50;;;;;;6170173;28;88992;-65
2022/07/17 23:17:27;;;;;;;3.08;2.80;;;24.10;90.50;;;;;;6171530;28;88662;-65
2022/07/17 23:20:31;;;;;;;2.97;2.78;;;24.10;90.60;;;;;;6169920;28;91084;-65
2022/07/17 23:23:33;;;;;;;2.85;2.63;;;24.20;90.60;;;;;;6170560;28;89451;-65
2022/07/17 23:26:35;;;;;;;3.30;3.00;;;24.20;90.60;;;;;;6169321;28;91893;-65
2022/07/17 23:29:37;;;;;;;3.30;3.00;;;24.10;90.60;;;;;;6170457;28;89378;-65
2022/07/17 23:32:39;;;;;;;3.15;2.83;;;24.10;90.60;;;;;;6169662;28;89001;-65
2022/07/17 23:35:42;;;;;;;3.28;2.92;;;24.20;90.60;;;;;;6170145;28;89164;-65
2022/07/17 23:38:44;;;;;;;3.63;3.03;;;24.10;90.60;;;;;;6168580;28;89065;-64
2022/07/17 23:41:46;;;;;;;3.13;2.83;;;24.10;90.60;;;;;;6171009;28;89063;-65
2022/07/17 23:44:49;;;;;;;3.03;2.60;;;24.20;90.60;;;;;;6169635;28;89413;-65
2022/07/17 23:47:51;;;;;;;3.00;2.70;;;24.10;90.60;;;;;;6169869;28;88358;-65
2022/07/17 23:50:55;;;;;;;3.75;2.95;;;24.10;90.60;;;;;;6168111;28;89107;-65
2022/07/17 23:53:57;;;;;;;3.20;2.80;;;24.20;90.60;;;;;;6168867;28;89076;-65
2022/07/17 23:56:59;;;;;;;3.08;2.80;;;24.10;90.60;;;;;;6169198;28;90095;-65
